sensor_id;sensor_type;location;lat;lon;timestamp;P1;durP1;ratioP1;P2;durP2;ratioP2
36663;SDS011;53333;51.976;20.144;2022-12-07T00:01:59;13.48;;;8.27;;
36663;SDS011;53333;51.976;20.144;2022-12-07T00:04:34;9.55;;;6.60;;
36663;SDS011;53333;51.976;20.144;2022-12-07T00:07:09;10.35;;;7.20;;
36663;SDS011;53333;51.976;20.144;2022-12-07T00:09:45;15.68;;;8.30;;
36663;SDS011;53333;51.976;20.144;2022-12-07T00:12:19;12.35;;;8.20;;
36663;SDS011;53333;51.976;20.144;2022-12-07T00:14:54;17.13;;;9.35;;
36663;SDS011;53333;51.976;20.144;2022-12-07T00:17:29;15.38;;;8.80;;
36663;SDS011;53333;51.976;20.144;2022-12-07T00:20:04;12.85;;;8.05;;
36663;SDS011;53333;51.976;20.144;2022-12-07T00:22:42;12.43;;;7.90;;
36663;SDS011;53333;51.976;20.144;2022-12-07T00:25:17;13.05;;;7.50;;
36663;SDS011;53333;51.976;20.144;2022-12-07T00:27:52;14.02;;;8.27;;
36663;SDS011;53333;51.976;20.144;2022-12-07T00:30:28;13.32;;;8.93;;
36663;SDS011;53333;51.976;20.144;2022-12-07T00:33:02;14.52;;;8.32;;
36663;SDS011;53333;51.976;20.144;2022-12-07T00:35:36;13.10;;;8.43;;
36663;SDS011;53333;51.976;20.144;2022-12-07T00:38:09;14.07;;;8.52;;
36663;SDS011;53333;51.976;20.144;2022-12-07T00:40:44;13.15;;;9.18;;
36663;SDS011;53333;51.976;20.144;2022-12-07T00:46:00;17.40;;;10.90;;
36663;SDS011;53333;51.976;20.144;2022-12-07T00:48:34;13.82;;;9.68;;
36663;SDS011;53333;51.976;20.144;2022-12-07T00:51:09;17.50;;;9.95;;
36663;SDS011;53333;51.976;20.144;2022-12-07T00:53:43;20.83;;;10.60;;
36663;SDS011;53333;51.976;20.144;2022-12-07T00:56:19;16.98;;;10.13;;
36663;SDS011;53333;51.976;20.144;2022-12-07T00:58:55;16.98;;;10.35;;
36663;SDS011;53333;51.976;20.144;2022-12-07T01:01:34;16.67;;;11.25;;
36663;SDS011;53333;51.976;20.144;2022-12-07T01:04:08;16.52;;;10.18;;
36663;SDS011;53333;51.976;20.144;2022-12-07T01:06:42;16.95;;;10.43;;
36663;SDS011;53333;51.976;20.144;2022-12-07T01:09:15;14.98;;;10.88;;
36663;SDS011;53333;51.976;20.144;2022-12-07T01:11:50;17.13;;;10.60;;
36663;SDS011;53333;51.976;20.144;2022-12-07T01:14:24;19.08;;;11.55;;
36663;SDS011;53333;51.976;20.144;2022-12-07T01:16:57;18.13;;;11.32;;
36663;SDS011;53333;51.976;20.144;2022-12-07T01:19:31;22.05;;;12.05;;
36663;SDS011;53333;51.976;20.144;2022-12-07T01:22:05;21.65;;;12.75;;
36663;SDS011;53333;51.976;20.144;2022-12-07T01:24:38;17.70;;;12.02;;
36663;SDS011;53333;51.976;20.144;2022-12-07T01:27:13;19.38;;;11.27;;
36663;SDS011;53333;51.976;20.144;2022-12-07T01:29:47;18.83;;;11.32;;
36663;SDS011;53333;51.976;20.144;2022-12-07T01:32:20;15.75;;;9.90;;
36663;SDS011;53333;51.976;20.144;2022-12-07T01:34:54;17.30;;;10.35;;
36663;SDS011;53333;51.976;20.144;2022-12-07T01:37:27;15.05;;;10.13;;
36663;SDS011;53333;51.976;20.144;2022-12-07T01:40:01;15.40;;;9.55;;
36663;SDS011;53333;51.976;20.144;2022-12-07T01:42:37;16.85;;;11.10;;
36663;SDS011;53333;51.976;20.144;2022-12-07T01:48:18;21.75;;;11.90;;
36663;SDS011;53333;51.976;20.144;2022-12-07T01:50:53;20.95;;;12.15;;
36663;SDS011;53333;51.976;20.144;2022-12-07T01:53:29;25.80;;;12.07;;
36663;SDS011;53333;51.976;20.144;2022-12-07T01:56:06;21.48;;;11.45;;
36663;SDS011;53333;51.976;20.144;2022-12-07T01:58:42;21.60;;;12.77;;
36663;SDS011;53333;51.976;20.144;2022-12-07T02:01:17;25.77;;;13.10;;
36663;SDS011;53333;51.976;20.144;2022-12-07T02:03:50;22.17;;;13.40;;
36663;SDS011;53333;51.976;20.144;2022-12-07T02:06:25;27.33;;;14.45;;
36663;SDS011;53333;51.976;20.144;2022-12-07T02:08:59;23.05;;;14.15;;
36663;SDS011;53333;51.976;20.144;2022-12-07T02:11:32;24.92;;;14.63;;
36663;SDS011;53333;51.976;20.144;2022-12-07T02:14:07;22.25;;;13.13;;
36663;SDS011;53333;51.976;20.144;2022-12-07T02:16:44;25.50;;;13.25;;
36663;SDS011;53333;51.976;20.144;2022-12-07T02:22:42;30.85;;;15.85;;
36663;SDS011;53333;51.976;20.144;2022-12-07T02:25:30;23.95;;;14.40;;
36663;SDS011;53333;51.976;20.144;2022-12-07T02:28:18;27.13;;;14.80;;
36663;SDS011;53333;51.976;20.144;2022-12-07T02:31:02;27.90;;;15.52;;
36663;SDS011;53333;51.976;20.144;2022-12-07T02:33:41;30.85;;;16.02;;
36663;SDS011;53333;51.976;20.144;2022-12-07T02:36:20;28.45;;;14.85;;
36663;SDS011;53333;51.976;20.144;2022-12-07T02:39:00;24.50;;;13.75;;
36663;SDS011;53333;51.976;20.144;2022-12-07T02:41:40;24.40;;;14.27;;
36663;SDS011;53333;51.976;20.144;2022-12-07T02:44:17;25.27;;;13.00;;
36663;SDS011;53333;51.976;20.144;2022-12-07T02:46:56;25.30;;;13.00;;
36663;SDS011;53333;51.976;20.144;2022-12-07T02:49:35;22.65;;;12.93;;
36663;SDS011;53333;51.976;20.144;2022-12-07T02:52:11;20.23;;;11.90;;
36663;SDS011;53333;51.976;20.144;2022-12-07T02:54:45;23.50;;;13.30;;
36663;SDS011;53333;51.976;20.144;2022-12-07T03:00:19;25.27;;;13.00;;
36663;SDS011;53333;51.976;20.144;2022-12-07T03:02:55;24.67;;;14.02;;
36663;SDS011;53333;51.976;20.144;2022-12-07T03:05:37;25.70;;;13.85;;
36663;SDS011;53333;51.976;20.144;2022-12-07T03:08:23;24.83;;;13.52;;
36663;SDS011;53333;51.976;20.144;2022-12-07T03:11:04;25.67;;;13.98;;
36663;SDS011;53333;51.976;20.144;2022-12-07T03:13:41;24.17;;;13.27;;
36663;SDS011;53333;51.976;20.144;2022-12-07T03:16:20;27.52;;;14.02;;
36663;SDS011;53333;51.976;20.144;2022-12-07T03:18:58;24.33;;;12.88;;
36663;SDS011;53333;51.976;20.144;2022-12-07T03:21:35;25.23;;;13.50;;
36663;SDS011;53333;51.976;20.144;2022-12-07T03:24:14;25.70;;;13.98;;
36663;SDS011;53333;51.976;20.144;2022-12-07T03:26:50;23.88;;;13.80;;
36663;SDS011;53333;51.976;20.144;2022-12-07T03:29:28;25.25;;;13.30;;
36663;SDS011;53333;51.976;20.144;2022-12-07T03:32:08;25.90;;;13.45;;
36663;SDS011;53333;51.976;20.144;2022-12-07T03:34:49;27.45;;;13.75;;
36663;SDS011;53333;51.976;20.144;2022-12-07T03:37:30;27.05;;;14.13;;
36663;SDS011;53333;51.976;20.144;2022-12-07T03:40:07;26.35;;;14.15;;
36663;SDS011;53333;51.976;20.144;2022-12-07T03:42:49;26.13;;;14.05;;
36663;SDS011;53333;51.976;20.144;2022-12-07T03:45:25;26.55;;;14.23;;
36663;SDS011;53333;51.976;20.144;2022-12-07T03:48:07;26.30;;;13.77;;
36663;SDS011;53333;51.976;20.144;2022-12-07T03:50:50;25.45;;;14.23;;
36663;SDS011;53333;51.976;20.144;2022-12-07T03:53:29;25.65;;;14.80;;
36663;SDS011;53333;51.976;20.144;2022-12-07T03:56:07;26.85;;;14.50;;
36663;SDS011;53333;51.976;20.144;2022-12-07T03:58:42;27.52;;;13.15;;
36663;SDS011;53333;51.976;20.144;2022-12-07T04:01:17;25.08;;;13.55;;
36663;SDS011;53333;51.976;20.144;2022-12-07T04:03:51;20.70;;;11.40;;
36663;SDS011;53333;51.976;20.144;2022-12-07T04:06:26;26.38;;;12.88;;
36663;SDS011;53333;51.976;20.144;2022-12-07T04:09:00;25.90;;;14.27;;
36663;SDS011;53333;51.976;20.144;2022-12-07T04:11:33;24.38;;;12.85;;
36663;SDS011;53333;51.976;20.144;2022-12-07T04:14:07;27.08;;;13.07;;
36663;SDS011;53333;51.976;20.144;2022-12-07T04:16:53;26.13;;;14.05;;
36663;SDS011;53333;51.976;20.144;2022-12-07T04:19:29;25.55;;;13.55;;
36663;SDS011;53333;51.976;20.144;2022-12-07T04:22:06;25.00;;;12.07;;
36663;SDS011;53333;51.976;20.144;2022-12-07T04:24:40;23.27;;;12.13;;
36663;SDS011;53333;51.976;20.144;2022-12-07T04:27:14;23.88;;;12.60;;
36663;SDS011;53333;51.976;20.144;2022-12-07T04:29:47;22.35;;;12.57;;
36663;SDS011;53333;51.976;20.144;2022-12-07T04:32:21;23.02;;;13.95;;
36663;SDS011;53333;51.976;20.144;2022-12-07T04:34:55;27.42;;;14.70;;
36663;SDS011;53333;51.976;20.144;2022-12-07T04:37:30;27.13;;;14.52;;
36663;SDS011;53333;51.976;20.144;2022-12-07T04:40:04;27.20;;;13.85;;
36663;SDS011;53333;51.976;20.144;2022-12-07T04:42:39;27.15;;;13.60;;
36663;SDS011;53333;51.976;20.144;2022-12-07T04:45:16;29.83;;;13.60;;
36663;SDS011;53333;51.976;20.144;2022-12-07T04:47:56;24.33;;;13.38;;
36663;SDS011;53333;51.976;20.144;2022-12-07T04:50:33;28.58;;;13.75;;
36663;SDS011;53333;51.976;20.144;2022-12-07T04:53:18;28.77;;;14.60;;
36663;SDS011;53333;51.976;20.144;2022-12-07T04:55:56;30.08;;;14.20;;
36663;SDS011;53333;51.976;20.144;2022-12-07T04:58:30;23.67;;;12.77;;
36663;SDS011;53333;51.976;20.144;2022-12-07T05:01:06;21.92;;;11.93;;
36663;SDS011;53333;51.976;20.144;2022-12-07T05:03:40;23.92;;;12.02;;
36663;SDS011;53333;51.976;20.144;2022-12-07T05:06:13;21.55;;;10.93;;
36663;SDS011;53333;51.976;20.144;2022-12-07T05:08:49;22.40;;;11.90;;
36663;SDS011;53333;51.976;20.144;2022-12-07T05:11:22;24.00;;;12.25;;
36663;SDS011;53333;51.976;20.144;2022-12-07T05:14:12;23.60;;;11.70;;
36663;SDS011;53333;51.976;20.144;2022-12-07T05:16:47;21.38;;;11.80;;
36663;SDS011;53333;51.976;20.144;2022-12-07T05:19:23;21.27;;;12.00;;
36663;SDS011;53333;51.976;20.144;2022-12-07T05:21:57;23.33;;;12.18;;
36663;SDS011;53333;51.976;20.144;2022-12-07T05:24:32;31.92;;;14.40;;
36663;SDS011;53333;51.976;20.144;2022-12-07T05:27:06;24.95;;;13.95;;
36663;SDS011;53333;51.976;20.144;2022-12-07T05:29:39;24.17;;;11.57;;
36663;SDS011;53333;51.976;20.144;2022-12-07T05:32:13;23.65;;;11.85;;
36663;SDS011;53333;51.976;20.144;2022-12-07T05:34:46;27.17;;;13.55;;
36663;SDS011;53333;51.976;20.144;2022-12-07T05:37:20;21.90;;;11.93;;
36663;SDS011;53333;51.976;20.144;2022-12-07T05:39:54;17.15;;;10.45;;
36663;SDS011;53333;51.976;20.144;2022-12-07T05:42:28;16.45;;;9.93;;
36663;SDS011;53333;51.976;20.144;2022-12-07T05:45:02;16.60;;;9.65;;
36663;SDS011;53333;51.976;20.144;2022-12-07T05:50:09;15.05;;;7.90;;
36663;SDS011;53333;51.976;20.144;2022-12-07T05:52:43;12.15;;;8.05;;
36663;SDS011;53333;51.976;20.144;2022-12-07T05:55:18;12.38;;;9.13;;
36663;SDS011;53333;51.976;20.144;2022-12-07T05:57:51;14.48;;;7.60;;
36663;SDS011;53333;51.976;20.144;2022-12-07T06:00:38;14.57;;;8.98;;
36663;SDS011;53333;51.976;20.144;2022-12-07T06:03:12;15.52;;;8.77;;
36663;SDS011;53333;51.976;20.144;2022-12-07T06:05:45;14.68;;;8.45;;
36663;SDS011;53333;51.976;20.144;2022-12-07T06:08:19;13.65;;;8.07;;
36663;SDS011;53333;51.976;20.144;2022-12-07T06:10:54;14.93;;;9.15;;
36663;SDS011;53333;51.976;20.144;2022-12-07T06:13:41;11.52;;;8.02;;
36663;SDS011;53333;51.976;20.144;2022-12-07T06:16:18;11.35;;;7.55;;
36663;SDS011;53333;51.976;20.144;2022-12-07T06:18:51;13.88;;;8.25;;
36663;SDS011;53333;51.976;20.144;2022-12-07T06:21:25;11.23;;;7.25;;
36663;SDS011;53333;51.976;20.144;2022-12-07T06:24:00;12.35;;;7.55;;
36663;SDS011;53333;51.976;20.144;2022-12-07T06:26:37;8.80;;;5.95;;
36663;SDS011;53333;51.976;20.144;2022-12-07T06:29:11;11.18;;;6.55;;
36663;SDS011;53333;51.976;20.144;2022-12-07T06:31:45;9.50;;;6.18;;
36663;SDS011;53333;51.976;20.144;2022-12-07T06:34:22;11.15;;;6.97;;
36663;SDS011;53333;51.976;20.144;2022-12-07T06:36:57;13.60;;;7.30;;
36663;SDS011;53333;51.976;20.144;2022-12-07T06:39:30;10.95;;;6.60;;
36663;SDS011;53333;51.976;20.144;2022-12-07T06:42:05;11.30;;;7.72;;
36663;SDS011;53333;51.976;20.144;2022-12-07T06:44:39;14.05;;;8.38;;
36663;SDS011;53333;51.976;20.144;2022-12-07T06:47:12;13.80;;;8.20;;
36663;SDS011;53333;51.976;20.144;2022-12-07T06:50:06;13.93;;;7.97;;
36663;SDS011;53333;51.976;20.144;2022-12-07T06:52:40;15.57;;;8.45;;
36663;SDS011;53333;51.976;20.144;2022-12-07T06:55:14;15.07;;;9.30;;
36663;SDS011;53333;51.976;20.144;2022-12-07T06:57:49;21.65;;;10.75;;
36663;SDS011;53333;51.976;20.144;2022-12-07T07:00:23;19.42;;;11.07;;
36663;SDS011;53333;51.976;20.144;2022-12-07T07:02:56;23.30;;;12.15;;
36663;SDS011;53333;51.976;20.144;2022-12-07T07:05:30;21.77;;;11.10;;
36663;SDS011;53333;51.976;20.144;2022-12-07T07:08:03;21.45;;;10.98;;
36663;SDS011;53333;51.976;20.144;2022-12-07T07:10:54;20.27;;;11.50;;
36663;SDS011;53333;51.976;20.144;2022-12-07T07:13:29;25.65;;;12.13;;
36663;SDS011;53333;51.976;20.144;2022-12-07T07:16:03;22.77;;;11.85;;
36663;SDS011;53333;51.976;20.144;2022-12-07T07:18:37;23.02;;;10.90;;
36663;SDS011;53333;51.976;20.144;2022-12-07T07:21:11;22.80;;;11.73;;
36663;SDS011;53333;51.976;20.144;2022-12-07T07:23:44;29.60;;;12.60;;
36663;SDS011;53333;51.976;20.144;2022-12-07T07:26:21;24.02;;;12.10;;
36663;SDS011;53333;51.976;20.144;2022-12-07T07:28:57;26.00;;;13.05;;
36663;SDS011;53333;51.976;20.144;2022-12-07T07:31:30;25.15;;;13.52;;
36663;SDS011;53333;51.976;20.144;2022-12-07T07:34:07;25.45;;;12.85;;
36663;SDS011;53333;51.976;20.144;2022-12-07T07:36:40;23.73;;;11.73;;
36663;SDS011;53333;51.976;20.144;2022-12-07T07:39:14;30.17;;;14.30;;
36663;SDS011;53333;51.976;20.144;2022-12-07T07:41:48;25.98;;;14.13;;
36663;SDS011;53333;51.976;20.144;2022-12-07T07:44:30;27.77;;;13.38;;
36663;SDS011;53333;51.976;20.144;2022-12-07T07:47:06;26.73;;;13.73;;
36663;SDS011;53333;51.976;20.144;2022-12-07T07:49:39;30.75;;;13.45;;
36663;SDS011;53333;51.976;20.144;2022-12-07T07:52:18;29.90;;;15.10;;
36663;SDS011;53333;51.976;20.144;2022-12-07T07:54:52;25.38;;;13.88;;
36663;SDS011;53333;51.976;20.144;2022-12-07T07:57:26;27.23;;;14.60;;
36663;SDS011;53333;51.976;20.144;2022-12-07T08:00:01;25.27;;;13.23;;
36663;SDS011;53333;51.976;20.144;2022-12-07T08:02:42;24.55;;;12.60;;
36663;SDS011;53333;51.976;20.144;2022-12-07T08:05:18;24.73;;;11.98;;
36663;SDS011;53333;51.976;20.144;2022-12-07T08:07:51;21.40;;;11.27;;
36663;SDS011;53333;51.976;20.144;2022-12-07T08:10:25;21.77;;;11.68;;
36663;SDS011;53333;51.976;20.144;2022-12-07T08:12:59;20.10;;;11.55;;
36663;SDS011;53333;51.976;20.144;2022-12-07T08:15:47;23.70;;;11.57;;
36663;SDS011;53333;51.976;20.144;2022-12-07T08:18:21;21.33;;;11.88;;
36663;SDS011;53333;51.976;20.144;2022-12-07T08:20:58;25.25;;;12.25;;
36663;SDS011;53333;51.976;20.144;2022-12-07T08:23:33;23.80;;;11.52;;
36663;SDS011;53333;51.976;20.144;2022-12-07T08:26:11;24.92;;;11.43;;
36663;SDS011;53333;51.976;20.144;2022-12-07T08:28:46;22.58;;;12.38;;
36663;SDS011;53333;51.976;20.144;2022-12-07T08:31:22;24.48;;;11.68;;
36663;SDS011;53333;51.976;20.144;2022-12-07T08:33:56;25.52;;;12.68;;
36663;SDS011;53333;51.976;20.144;2022-12-07T08:36:30;26.83;;;13.25;;
36663;SDS011;53333;51.976;20.144;2022-12-07T08:39:03;27.70;;;14.52;;
36663;SDS011;53333;51.976;20.144;2022-12-07T08:41:57;28.80;;;13.05;;
36663;SDS011;53333;51.976;20.144;2022-12-07T08:44:31;25.05;;;12.18;;
36663;SDS011;53333;51.976;20.144;2022-12-07T08:47:06;21.77;;;12.27;;
36663;SDS011;53333;51.976;20.144;2022-12-07T08:49:43;22.60;;;11.68;;
36663;SDS011;53333;51.976;20.144;2022-12-07T08:52:20;25.42;;;11.90;;
36663;SDS011;53333;51.976;20.144;2022-12-07T08:54:54;22.50;;;11.40;;
36663;SDS011;53333;51.976;20.144;2022-12-07T09:00:02;20.52;;;11.48;;
36663;SDS011;53333;51.976;20.144;2022-12-07T09:02:38;23.60;;;11.82;;
36663;SDS011;53333;51.976;20.144;2022-12-07T09:05:13;21.75;;;11.00;;
36663;SDS011;53333;51.976;20.144;2022-12-07T09:07:48;17.55;;;10.00;;
36663;SDS011;53333;51.976;20.144;2022-12-07T09:10:27;25.70;;;11.73;;
36663;SDS011;53333;51.976;20.144;2022-12-07T09:13:01;23.15;;;11.43;;
36663;SDS011;53333;51.976;20.144;2022-12-07T09:15:34;20.98;;;10.68;;
36663;SDS011;53333;51.976;20.144;2022-12-07T09:18:09;25.20;;;12.35;;
36663;SDS011;53333;51.976;20.144;2022-12-07T09:20:46;15.98;;;9.80;;
36663;SDS011;53333;51.976;20.144;2022-12-07T09:23:19;22.00;;;13.73;;
36663;SDS011;53333;51.976;20.144;2022-12-07T09:25:53;23.15;;;12.30;;
36663;SDS011;53333;51.976;20.144;2022-12-07T09:28:26;28.75;;;14.77;;
36663;SDS011;53333;51.976;20.144;2022-12-07T09:31:01;57.70;;;26.88;;
36663;SDS011;53333;51.976;20.144;2022-12-07T09:33:57;22.08;;;12.07;;
36663;SDS011;53333;51.976;20.144;2022-12-07T09:36:32;24.15;;;11.95;;
36663;SDS011;53333;51.976;20.144;2022-12-07T09:41:39;19.67;;;9.75;;
36663;SDS011;53333;51.976;20.144;2022-12-07T09:44:17;20.10;;;11.07;;
36663;SDS011;53333;51.976;20.144;2022-12-07T09:46:54;19.23;;;9.98;;
36663;SDS011;53333;51.976;20.144;2022-12-07T09:49:30;24.73;;;12.73;;
36663;SDS011;53333;51.976;20.144;2022-12-07T09:52:16;18.42;;;9.68;;
36663;SDS011;53333;51.976;20.144;2022-12-07T09:54:52;17.52;;;10.10;;
36663;SDS011;53333;51.976;20.144;2022-12-07T09:57:27;18.02;;;9.85;;
36663;SDS011;53333;51.976;20.144;2022-12-07T10:00:04;21.10;;;10.63;;
36663;SDS011;53333;51.976;20.144;2022-12-07T10:02:46;23.95;;;11.18;;
36663;SDS011;53333;51.976;20.144;2022-12-07T10:05:24;20.50;;;11.52;;
36663;SDS011;53333;51.976;20.144;2022-12-07T10:08:02;21.70;;;12.57;;
36663;SDS011;53333;51.976;20.144;2022-12-07T10:13:10;22.02;;;12.65;;
36663;SDS011;53333;51.976;20.144;2022-12-07T10:15:47;26.05;;;15.60;;
36663;SDS011;53333;51.976;20.144;2022-12-07T10:18:27;23.10;;;13.05;;
36663;SDS011;53333;51.976;20.144;2022-12-07T10:21:10;23.48;;;12.20;;
36663;SDS011;53333;51.976;20.144;2022-12-07T10:23:58;23.02;;;11.48;;
36663;SDS011;53333;51.976;20.144;2022-12-07T10:26:35;22.80;;;11.45;;
36663;SDS011;53333;51.976;20.144;2022-12-07T10:29:14;24.58;;;11.38;;
36663;SDS011;53333;51.976;20.144;2022-12-07T10:31:51;22.23;;;10.57;;
36663;SDS011;53333;51.976;20.144;2022-12-07T10:34:28;18.83;;;10.77;;
36663;SDS011;53333;51.976;20.144;2022-12-07T10:37:17;20.77;;;11.43;;
36663;SDS011;53333;51.976;20.144;2022-12-07T10:39:52;20.00;;;10.00;;
36663;SDS011;53333;51.976;20.144;2022-12-07T10:42:27;20.67;;;11.40;;
36663;SDS011;53333;51.976;20.144;2022-12-07T10:45:09;18.08;;;10.70;;
36663;SDS011;53333;51.976;20.144;2022-12-07T10:47:47;27.42;;;13.15;;
36663;SDS011;53333;51.976;20.144;2022-12-07T10:53:47;18.83;;;10.30;;
36663;SDS011;53333;51.976;20.144;2022-12-07T11:00:03;16.92;;;9.52;;
36663;SDS011;53333;51.976;20.144;2022-12-07T11:02:53;17.27;;;8.80;;
36663;SDS011;53333;51.976;20.144;2022-12-07T11:05:52;15.82;;;9.30;;
36663;SDS011;53333;51.976;20.144;2022-12-07T11:08:39;15.23;;;9.25;;
36663;SDS011;53333;51.976;20.144;2022-12-07T11:11:27;16.48;;;9.68;;
36663;SDS011;53333;51.976;20.144;2022-12-07T11:14:10;17.58;;;9.85;;
36663;SDS011;53333;51.976;20.144;2022-12-07T11:16:55;18.35;;;11.00;;
36663;SDS011;53333;51.976;20.144;2022-12-07T11:19:40;30.63;;;16.45;;
36663;SDS011;53333;51.976;20.144;2022-12-07T11:22:25;14.40;;;9.30;;
36663;SDS011;53333;51.976;20.144;2022-12-07T11:25:14;15.27;;;8.93;;
36663;SDS011;53333;51.976;20.144;2022-12-07T11:28:06;21.15;;;11.05;;
36663;SDS011;53333;51.976;20.144;2022-12-07T11:30:52;18.80;;;9.82;;
36663;SDS011;53333;51.976;20.144;2022-12-07T11:33:33;18.30;;;9.90;;
36663;SDS011;53333;51.976;20.144;2022-12-07T11:36:17;18.65;;;10.02;;
36663;SDS011;53333;51.976;20.144;2022-12-07T11:39:04;15.07;;;8.07;;
36663;SDS011;53333;51.976;20.144;2022-12-07T11:41:47;19.65;;;9.95;;
36663;SDS011;53333;51.976;20.144;2022-12-07T11:44:27;13.27;;;8.85;;
36663;SDS011;53333;51.976;20.144;2022-12-07T11:47:07;15.30;;;9.00;;
36663;SDS011;53333;51.976;20.144;2022-12-07T11:49:53;15.75;;;9.00;;
36663;SDS011;53333;51.976;20.144;2022-12-07T11:52:32;15.10;;;8.93;;
36663;SDS011;53333;51.976;20.144;2022-12-07T11:55:19;14.57;;;8.55;;
36663;SDS011;53333;51.976;20.144;2022-12-07T11:57:59;12.90;;;8.10;;
36663;SDS011;53333;51.976;20.144;2022-12-07T12:00:38;15.63;;;9.35;;
36663;SDS011;53333;51.976;20.144;2022-12-07T12:03:15;24.52;;;12.98;;
36663;SDS011;53333;51.976;20.144;2022-12-07T12:05:55;17.13;;;10.40;;
36663;SDS011;53333;51.976;20.144;2022-12-07T12:08:29;16.63;;;10.27;;
36663;SDS011;53333;51.976;20.144;2022-12-07T12:11:32;15.68;;;10.60;;
36663;SDS011;53333;51.976;20.144;2022-12-07T12:14:23;16.48;;;9.40;;
36663;SDS011;53333;51.976;20.144;2022-12-07T12:20:37;21.05;;;10.52;;
36663;SDS011;53333;51.976;20.144;2022-12-07T12:23:15;14.77;;;9.48;;
36663;SDS011;53333;51.976;20.144;2022-12-07T12:25:53;19.83;;;11.32;;
36663;SDS011;53333;51.976;20.144;2022-12-07T12:28:29;16.40;;;9.45;;
36663;SDS011;53333;51.976;20.144;2022-12-07T12:31:08;17.73;;;10.25;;
36663;SDS011;53333;51.976;20.144;2022-12-07T12:33:46;19.60;;;10.98;;
36663;SDS011;53333;51.976;20.144;2022-12-07T12:36:27;61.13;;;27.10;;
36663;SDS011;53333;51.976;20.144;2022-12-07T12:39:18;18.23;;;10.68;;
36663;SDS011;53333;51.976;20.144;2022-12-07T12:41:53;16.60;;;10.02;;
36663;SDS011;53333;51.976;20.144;2022-12-07T12:44:42;17.85;;;10.52;;
36663;SDS011;53333;51.976;20.144;2022-12-07T12:47:51;15.55;;;9.23;;
36663;SDS011;53333;51.976;20.144;2022-12-07T12:50:30;17.45;;;9.75;;
36663;SDS011;53333;51.976;20.144;2022-12-07T12:53:13;18.40;;;10.60;;
36663;SDS011;53333;51.976;20.144;2022-12-07T12:56:05;13.98;;;9.80;;
36663;SDS011;53333;51.976;20.144;2022-12-07T13:02:06;16.90;;;11.13;;
36663;SDS011;53333;51.976;20.144;2022-12-07T13:04:49;14.80;;;9.95;;
36663;SDS011;53333;51.976;20.144;2022-12-07T13:10:38;19.77;;;10.65;;
36663;SDS011;53333;51.976;20.144;2022-12-07T13:13:28;20.55;;;10.75;;
36663;SDS011;53333;51.976;20.144;2022-12-07T13:25:34;16.70;;;10.73;;
36663;SDS011;53333;51.976;20.144;2022-12-07T13:28:16;17.90;;;11.25;;
36663;SDS011;53333;51.976;20.144;2022-12-07T13:30:58;16.05;;;10.30;;
36663;SDS011;53333;51.976;20.144;2022-12-07T13:33:36;41.45;;;20.15;;
36663;SDS011;53333;51.976;20.144;2022-12-07T13:36:12;20.83;;;10.95;;
36663;SDS011;53333;51.976;20.144;2022-12-07T13:38:52;17.08;;;10.35;;
36663;SDS011;53333;51.976;20.144;2022-12-07T13:41:29;17.45;;;11.13;;
36663;SDS011;53333;51.976;20.144;2022-12-07T13:44:07;18.35;;;10.30;;
36663;SDS011;53333;51.976;20.144;2022-12-07T13:46:46;18.73;;;11.85;;
36663;SDS011;53333;51.976;20.144;2022-12-07T13:49:26;20.42;;;11.25;;
36663;SDS011;53333;51.976;20.144;2022-12-07T13:52:12;17.60;;;10.77;;
36663;SDS011;53333;51.976;20.144;2022-12-07T13:54:49;17.35;;;10.45;;
36663;SDS011;53333;51.976;20.144;2022-12-07T13:57:31;20.35;;;10.95;;
36663;SDS011;53333;51.976;20.144;2022-12-07T14:02:54;24.58;;;12.70;;
36663;SDS011;53333;51.976;20.144;2022-12-07T14:05:29;19.67;;;12.02;;
36663;SDS011;53333;51.976;20.144;2022-12-07T14:08:04;23.67;;;12.02;;
36663;SDS011;53333;51.976;20.144;2022-12-07T14:10:54;28.40;;;14.50;;
36663;SDS011;53333;51.976;20.144;2022-12-07T14:13:32;25.38;;;13.52;;
36663;SDS011;53333;51.976;20.144;2022-12-07T14:16:17;24.35;;;14.13;;
36663;SDS011;53333;51.976;20.144;2022-12-07T14:18:56;23.67;;;13.68;;
36663;SDS011;53333;51.976;20.144;2022-12-07T14:21:31;24.98;;;12.93;;
36663;SDS011;53333;51.976;20.144;2022-12-07T14:24:15;25.48;;;14.23;;
36663;SDS011;53333;51.976;20.144;2022-12-07T14:26:50;24.33;;;13.50;;
36663;SDS011;53333;51.976;20.144;2022-12-07T14:29:32;24.95;;;14.45;;
36663;SDS011;53333;51.976;20.144;2022-12-07T14:35:00;25.08;;;12.90;;
36663;SDS011;53333;51.976;20.144;2022-12-07T14:37:43;23.02;;;13.35;;
36663;SDS011;53333;51.976;20.144;2022-12-07T14:40:28;27.85;;;14.07;;
36663;SDS011;53333;51.976;20.144;2022-12-07T14:43:03;24.50;;;12.70;;
36663;SDS011;53333;51.976;20.144;2022-12-07T14:45:42;38.22;;;19.10;;
36663;SDS011;53333;51.976;20.144;2022-12-07T14:48:16;28.23;;;13.70;;
36663;SDS011;53333;51.976;20.144;2022-12-07T14:51:10;25.33;;;12.25;;
36663;SDS011;53333;51.976;20.144;2022-12-07T14:54:05;25.30;;;13.68;;
36663;SDS011;53333;51.976;20.144;2022-12-07T14:56:44;22.73;;;12.77;;
36663;SDS011;53333;51.976;20.144;2022-12-07T14:59:20;23.85;;;14.52;;
36663;SDS011;53333;51.976;20.144;2022-12-07T15:01:55;22.75;;;13.15;;
36663;SDS011;53333;51.976;20.144;2022-12-07T15:04:31;23.60;;;13.32;;
36663;SDS011;53333;51.976;20.144;2022-12-07T15:07:06;23.80;;;13.90;;
36663;SDS011;53333;51.976;20.144;2022-12-07T15:09:46;24.85;;;13.85;;
36663;SDS011;53333;51.976;20.144;2022-12-07T15:12:20;28.80;;;15.07;;
36663;SDS011;53333;51.976;20.144;2022-12-07T15:14:55;31.08;;;15.93;;
36663;SDS011;53333;51.976;20.144;2022-12-07T15:17:30;30.88;;;17.42;;
36663;SDS011;53333;51.976;20.144;2022-12-07T15:20:04;38.15;;;16.40;;
36663;SDS011;53333;51.976;20.144;2022-12-07T15:22:38;35.50;;;17.42;;
36663;SDS011;53333;51.976;20.144;2022-12-07T15:25:12;28.90;;;14.77;;
36663;SDS011;53333;51.976;20.144;2022-12-07T15:27:46;32.90;;;16.67;;
36663;SDS011;53333;51.976;20.144;2022-12-07T15:30:20;26.55;;;14.75;;
36663;SDS011;53333;51.976;20.144;2022-12-07T15:32:55;32.22;;;16.40;;
36663;SDS011;53333;51.976;20.144;2022-12-07T15:35:29;24.15;;;14.40;;
36663;SDS011;53333;51.976;20.144;2022-12-07T15:38:02;25.25;;;15.13;;
36663;SDS011;53333;51.976;20.144;2022-12-07T15:40:36;28.42;;;14.38;;
36663;SDS011;53333;51.976;20.144;2022-12-07T15:43:10;27.05;;;14.93;;
36663;SDS011;53333;51.976;20.144;2022-12-07T15:46:11;28.67;;;14.23;;
36663;SDS011;53333;51.976;20.144;2022-12-07T15:48:46;28.20;;;15.88;;
36663;SDS011;53333;51.976;20.144;2022-12-07T15:51:19;23.52;;;14.02;;
36663;SDS011;53333;51.976;20.144;2022-12-07T15:53:56;20.83;;;13.77;;
36663;SDS011;53333;51.976;20.144;2022-12-07T15:56:30;21.88;;;12.50;;
36663;SDS011;53333;51.976;20.144;2022-12-07T15:59:04;21.52;;;12.93;;
36663;SDS011;53333;51.976;20.144;2022-12-07T16:01:39;22.88;;;12.73;;
36663;SDS011;53333;51.976;20.144;2022-12-07T16:04:15;22.33;;;11.93;;
36663;SDS011;53333;51.976;20.144;2022-12-07T16:06:48;22.75;;;12.52;;